createdAt,value
2023-01-18T00:01:07.868Z,98352.88
2023-01-18T00:03:36.267Z,98349.13
2023-01-18T00:06:04.493Z,98351.19
2023-01-18T00:08:33.159Z,98360.16
2023-01-18T00:11:15.444Z,98364.94
2023-01-18T00:13:41.955Z,98364.13
2023-01-18T00:16:12.756Z,98358.91
2023-01-18T00:18:39.742Z,98366.41
2023-01-18T00:21:09.019Z,98362.25
2023-01-18T00:23:35.890Z,98358.91
2023-01-18T00:26:04.969Z,98362.03
2023-01-18T00:28:31.523Z,98361.63
2023-01-18T00:30:57.968Z,98355.81
2023-01-18T00:33:24.485Z,98362.91
2023-01-18T00:35:58.817Z,98362.25
2023-01-18T00:38:26.097Z,98372.47
2023-01-18T00:40:52.515Z,98365.19
2023-01-18T00:43:37.893Z,98364.34
2023-01-18T00:46:12.737Z,98365.81
2023-01-18T00:48:40.579Z,98363.28
2023-01-18T00:51:12.548Z,98373.28
2023-01-18T00:53:39.303Z,98371.63
2023-01-18T00:56:10.431Z,98376.41
2023-01-18T00:58:39.411Z,98374.72
2023-01-18T01:01:07.334Z,98369.53
2023-01-18T01:03:54.426Z,98377.84
2023-01-18T01:06:44.828Z,98377.25
2023-01-18T01:09:16.369Z,98381.16
2023-01-18T01:12:03.370Z,98376.19
2023-01-18T01:14:49.254Z,98374.72
2023-01-18T01:17:34.115Z,98375.16
2023-01-18T01:20:19.611Z,98386.16
2023-01-18T01:23:04.609Z,98393.84
2023-01-18T01:25:49.524Z,98394.88
2023-01-18T01:28:16.009Z,98401.34
2023-01-18T01:30:42.506Z,98397.81
2023-01-18T01:33:08.923Z,98396.97
2023-01-18T01:35:35.940Z,98395.09
2023-01-18T01:38:02.357Z,98400.69
2023-01-18T01:40:28.793Z,98406.09
2023-01-18T01:42:55.595Z,98410.88
2023-01-18T01:45:27.542Z,98409.03
2023-01-18T01:47:55.796Z,98410.88
2023-01-18T01:50:36.631Z,98409.88
2023-01-18T01:53:03.882Z,98413.59
2023-01-18T01:55:33.508Z,98416.28
2023-01-18T01:58:04.938Z,98417.31
2023-01-18T02:00:32.742Z,98418.16
2023-01-18T02:03:02.044Z,98424.41
2023-01-18T02:05:30.481Z,98424.41
2023-01-18T02:08:00.788Z,98426.25
2023-01-18T02:10:28.506Z,98427.91
2023-01-18T02:12:56.921Z,98428.97
2023-01-18T02:15:38.157Z,98437.25
2023-01-18T02:18:26.205Z,98441.00
2023-01-18T02:21:06.957Z,98436.84
2023-01-18T02:23:42.555Z,98436.84
2023-01-18T02:26:49.977Z,98448.06
2023-01-18T02:29:20.905Z,98443.91
2023-01-18T02:31:56.848Z,98451.13
2023-01-18T02:34:36.082Z,98447.63
2023-01-18T02:37:12.744Z,98446.97
2023-01-18T02:40:01.001Z,98458.78
2023-01-18T02:42:47.247Z,98454.63
2023-01-18T02:45:34.973Z,98467.09
2023-01-18T02:48:02.853Z,98464.16
2023-01-18T02:50:29.389Z,98466.25
2023-01-18T02:52:56.209Z,98469.97
2023-01-18T02:55:50.647Z,98475.78
2023-01-18T02:58:28.366Z,98476.16
2023-01-18T03:01:01.915Z,98473.66
2023-01-18T03:03:28.679Z,98475.34
2023-01-18T03:06:00.007Z,98470.13
2023-01-18T03:08:33.515Z,98475.34
2023-01-18T03:11:09.280Z,98478.22
2023-01-18T03:13:46.645Z,98474.91
2023-01-18T03:16:20.988Z,98478.63
2023-01-18T03:19:02.990Z,98479.47
2023-01-18T03:21:47.501Z,98488.59
2023-01-18T03:24:16.273Z,98484.03
2023-01-18T03:26:48.414Z,98495.47
2023-01-18T03:29:35.161Z,98501.50
2023-01-18T03:32:33.494Z,98502.13
2023-01-18T03:35:14.450Z,98501.50
2023-01-18T03:37:44.284Z,98506.69
2023-01-18T03:40:13.332Z,98512.94
2023-01-18T03:43:04.539Z,98510.22
2023-01-18T03:45:38.684Z,98509.19
2023-01-18T03:48:08.308Z,98511.91
2023-01-18T03:51:00.326Z,98520.59
2023-01-18T03:54:03.320Z,98523.50
2023-01-18T03:56:52.687Z,98527.22
2023-01-18T03:59:19.256Z,98533.47
2023-01-18T04:01:48.103Z,98542.59
2023-01-18T04:04:15.030Z,98549.03
2023-01-18T04:06:41.505Z,98549.03
2023-01-18T04:09:08.305Z,98564.19
2023-01-18T04:11:35.785Z,98569.59
2023-01-18T04:14:02.201Z,98571.47
2023-01-18T04:16:28.614Z,98575.84
2023-01-18T04:18:55.105Z,98575.84
2023-01-18T04:21:21.536Z,98584.56
2023-01-18T04:23:47.913Z,98583.72
2023-01-18T04:26:16.666Z,98584.56
2023-01-18T04:28:43.203Z,98589.97
2023-01-18T04:31:09.869Z,98588.94
2023-01-18T04:33:36.416Z,98589.34
2023-01-18T04:36:03.009Z,98593.91
2023-01-18T04:38:29.366Z,98594.06
2023-01-18T04:40:55.786Z,98596.16
2023-01-18T04:43:22.171Z,98599.88
2023-01-18T04:45:55.716Z,98597.56
2023-01-18T04:48:22.479Z,98604.00
2023-01-18T04:50:48.992Z,98613.97
2023-01-18T04:53:16.495Z,98606.91
2023-01-18T04:55:43.397Z,98618.53
2023-01-18T04:58:10.433Z,98609.59
2023-01-18T05:00:40.120Z,98623.56
2023-01-18T05:03:11.422Z,98619.00
2023-01-18T05:05:37.853Z,98626.03
2023-01-18T05:08:04.511Z,98626.88
2023-01-18T05:10:33.505Z,98635.19
2023-01-18T05:13:00.418Z,98636.00
2023-01-18T05:15:26.955Z,98637.88
2023-01-18T05:17:53.415Z,98645.16
2023-01-18T05:20:19.815Z,98648.88
2023-01-18T05:22:46.235Z,98650.94
2023-01-18T05:25:12.736Z,98654.66
2023-01-18T05:27:39.144Z,98660.06
2023-01-18T05:30:06.945Z,98660.25
2023-01-18T05:32:33.507Z,98670.00
2023-01-18T05:34:59.946Z,98664.81
2023-01-18T05:37:26.461Z,98677.28
2023-01-18T05:39:52.838Z,98679.97
2023-01-18T05:42:19.397Z,98687.06
2023-01-18T05:44:45.837Z,98687.06
2023-01-18T05:47:12.196Z,98686.03
2023-01-18T05:49:41.042Z,98689.53
2023-01-18T05:52:08.379Z,98688.72
2023-01-18T05:54:34.853Z,98687.69
2023-01-18T05:57:01.223Z,98690.38
2023-01-18T05:59:27.641Z,98698.28
2023-01-18T06:01:54.059Z,98699.31
2023-01-18T06:04:20.620Z,98702.84
2023-01-18T06:06:47.025Z,98703.88
2023-01-18T06:09:13.994Z,98714.88
2023-01-18T06:11:40.411Z,98725.47
2023-01-18T06:14:06.774Z,98717.19
2023-01-18T06:16:33.190Z,98726.97
2023-01-18T06:18:59.609Z,98727.59
2023-01-18T06:21:26.811Z,98730.13
2023-01-18T06:23:53.289Z,98737.38
2023-01-18T06:26:19.692Z,98735.53
2023-01-18T06:28:46.165Z,98743.63
2023-01-18T06:31:12.704Z,98745.28
2023-01-18T06:33:39.174Z,98754.41
2023-01-18T06:36:06.002Z,98756.91
2023-01-18T06:38:32.627Z,98757.75
2023-01-18T06:40:58.995Z,98755.06
2023-01-18T06:43:25.401Z,98760.44
2023-01-18T06:45:53.580Z,98770.03
2023-01-18T06:48:20.139Z,98761.91
2023-01-18T06:50:46.535Z,98772.72
2023-01-18T06:53:12.950Z,98769.84
2023-01-18T06:55:39.341Z,98783.97
2023-01-18T06:58:05.710Z,98786.31
2023-01-18T07:00:32.147Z,98794.03
2023-01-18T07:02:58.944Z,98795.31
2023-01-18T07:05:25.738Z,98796.59
2023-01-18T07:07:52.177Z,98808.69
2023-01-18T07:10:18.717Z,98805.59
2023-01-18T07:12:48.628Z,98808.75
2023-01-18T07:15:21.990Z,98813.94
2023-01-18T07:17:50.374Z,98823.31
2023-01-18T07:20:17.150Z,98826.69
2023-01-18T07:22:43.605Z,98829.84
2023-01-18T07:25:13.224Z,98828.78
2023-01-18T07:27:43.151Z,98827.75
2023-01-18T07:30:12.349Z,98834.19
2023-01-18T07:32:39.868Z,98837.94
2023-01-18T07:35:07.347Z,98844.19
2023-01-18T07:37:34.419Z,98847.91
2023-01-18T07:40:00.908Z,98840.00
2023-01-18T07:42:27.310Z,98849.16
2023-01-18T07:44:53.767Z,98857.44
2023-01-18T07:47:20.206Z,98862.84
2023-01-18T07:49:46.811Z,98870.31
2023-01-18T07:52:13.374Z,98871.97
2023-01-18T07:54:40.049Z,98868.41
2023-01-18T07:57:06.481Z,98871.13
2023-01-18T07:59:33.607Z,98868.63
2023-01-18T08:02:00.052Z,98880.72
2023-01-18T08:04:26.529Z,98888.44
2023-01-18T08:06:53.442Z,98897.19
2023-01-18T08:09:19.865Z,98889.06
2023-01-18T08:11:46.317Z,98893.47
2023-01-18T08:14:12.840Z,98900.53
2023-01-18T08:16:39.261Z,98903.88
2023-01-18T08:19:05.708Z,98906.41
2023-01-18T08:21:33.592Z,98918.69
2023-01-18T08:24:00.040Z,98908.31
2023-01-18T08:26:26.531Z,98921.44
2023-01-18T08:28:53.076Z,98921.09
2023-01-18T08:31:21.383Z,98930.00
2023-01-18T08:33:49.021Z,98935.41
2023-01-18T08:36:18.949Z,98943.50
2023-01-18T08:38:59.206Z,98946.44
2023-01-18T08:41:30.536Z,98954.53
2023-01-18T08:43:58.435Z,98957.03
2023-01-18T08:46:25.569Z,98951.44
2023-01-18T08:48:54.015Z,98951.25
2023-01-18T08:51:22.846Z,98955.63
2023-01-18T08:53:54.310Z,98969.78
2023-01-18T08:56:21.177Z,98963.38
2023-01-18T08:58:47.807Z,98967.34
2023-01-18T09:01:14.335Z,98977.97
2023-01-18T09:03:41.907Z,98976.56
2023-01-18T09:06:11.715Z,98981.41
2023-01-18T09:08:39.268Z,98979.97
2023-01-18T09:11:08.084Z,98975.22
2023-01-18T09:13:34.720Z,98985.63
2023-01-18T09:16:07.559Z,98989.63
2023-01-18T09:18:34.188Z,98997.34
2023-01-18T09:21:09.236Z,98998.63
2023-01-18T09:23:37.106Z,98999.75
2023-01-18T09:26:09.649Z,98995.41
2023-01-18T09:28:36.498Z,99005.47
2023-01-18T09:31:05.174Z,99009.06
2023-01-18T09:33:37.597Z,99014.72
2023-01-18T09:36:07.759Z,99029.16
2023-01-18T09:38:35.072Z,99027.34
2023-01-18T09:41:02.435Z,99028.25
2023-01-18T09:43:43.594Z,99028.09
2023-01-18T09:46:22.192Z,99030.47
2023-01-18T09:48:56.274Z,99030.09
2023-01-18T09:51:28.699Z,99029.16
2023-01-18T09:54:10.437Z,99031.75
2023-01-18T09:56:49.365Z,99034.75
2023-01-18T09:59:46.028Z,99035.44
2023-01-18T10:02:46.988Z,99031.94
2023-01-18T10:05:19.119Z,99045.38
2023-01-18T10:08:02.424Z,99035.59
2023-01-18T10:10:40.611Z,99038.78
2023-01-18T10:13:39.102Z,99047.34
2023-01-18T10:16:14.925Z,99047.78
2023-01-18T10:18:45.605Z,99054.44
2023-01-18T10:21:25.822Z,99058.63
2023-01-18T10:24:17.542Z,99055.28
2023-01-18T10:26:45.280Z,99058.84
2023-01-18T10:29:38.096Z,99058.91
2023-01-18T10:32:19.253Z,99063.31
2023-01-18T10:34:49.302Z,99056.44
2023-01-18T10:37:27.611Z,99055.00
2023-01-18T10:40:00.571Z,99062.09
2023-01-18T10:42:36.598Z,99040.56
2023-01-18T10:45:03.324Z,99045.13
2023-01-18T10:47:29.797Z,99055.97
2023-01-18T10:49:59.854Z,99054.03
2023-01-18T10:52:31.858Z,99055.25
2023-01-18T10:55:07.345Z,99055.56
2023-01-18T10:57:47.916Z,99055.06
2023-01-18T11:00:27.615Z,99059.56
2023-01-18T11:02:55.630Z,99059.19
2023-01-18T11:05:28.776Z,99055.31
2023-01-18T11:08:19.043Z,99055.81
2023-01-18T11:10:45.722Z,99054.13
2023-01-18T11:13:31.055Z,99059.50
2023-01-18T11:16:10.368Z,99057.31
2023-01-18T11:18:36.964Z,99057.72
2023-01-18T11:21:09.549Z,99052.66
2023-01-18T11:23:36.384Z,99054.69
2023-01-18T11:26:12.762Z,99053.19
2023-01-18T11:28:44.037Z,99050.06
2023-01-18T11:31:14.069Z,99053.63
2023-01-18T11:33:54.446Z,99043.78
2023-01-18T11:36:33.145Z,99049.69
2023-01-18T11:39:18.350Z,99049.13
2023-01-18T11:41:44.832Z,99054.88
2023-01-18T11:44:17.223Z,99053.53
2023-01-18T11:46:48.408Z,99053.38
2023-01-18T11:49:24.559Z,99053.47
2023-01-18T11:52:02.172Z,99062.97
2023-01-18T11:54:43.346Z,99063.22
2023-01-18T11:57:12.337Z,99066.78
2023-01-18T11:59:46.832Z,99071.41
2023-01-18T12:02:38.507Z,99073.31
2023-01-18T12:05:40.548Z,99079.81
2023-01-18T12:08:31.768Z,99079.16
2023-01-18T12:11:39.193Z,99078.47
2023-01-18T12:14:41.884Z,99078.16
2023-01-18T12:17:16.126Z,99079.75
2023-01-18T12:20:02.784Z,99083.88
2023-01-18T12:22:50.553Z,99078.75
2023-01-18T12:25:25.817Z,99089.38
2023-01-18T12:28:07.358Z,99087.81
2023-01-18T12:30:49.773Z,99081.41
2023-01-18T12:33:43.829Z,99080.44
2023-01-18T12:36:44.517Z,99090.28
2023-01-18T12:39:28.877Z,99085.63
2023-01-18T12:42:41.275Z,99076.41
2023-01-18T12:45:27.231Z,99086.19
2023-01-18T12:48:21.760Z,99078.72
2023-01-18T12:50:49.746Z,99068.59
2023-01-18T12:53:20.120Z,99073.50
2023-01-18T12:55:51.289Z,99061.06
2023-01-18T12:58:25.297Z,99061.09
2023-01-18T13:00:57.448Z,99060.13
2023-01-18T13:03:29.679Z,99060.91
2023-01-18T13:05:57.421Z,99059.63
2023-01-18T13:08:38.991Z,99061.19
2023-01-18T13:11:17.198Z,99061.34
2023-01-18T13:13:47.522Z,99056.94
2023-01-18T13:16:22.730Z,99060.66
2023-01-18T13:18:55.488Z,99063.31
2023-01-18T13:21:31.969Z,99051.53
2023-01-18T13:24:24.047Z,99059.03
2023-01-18T13:26:50.557Z,99049.50
2023-01-18T13:29:19.939Z,99051.94
2023-01-18T13:31:46.830Z,99062.09
2023-01-18T13:34:47.684Z,99057.19
2023-01-18T13:37:43.024Z,99062.69
2023-01-18T13:40:25.194Z,99059.63
2023-01-18T13:42:51.935Z,99057.31
2023-01-18T13:45:25.890Z,99056.63
2023-01-18T13:48:07.524Z,99063.03
2023-01-18T13:50:38.075Z,99067.28
2023-01-18T13:53:17.940Z,99072.00
2023-01-18T13:55:59.844Z,99078.91
2023-01-18T13:58:28.429Z,99083.94
2023-01-18T14:00:58.557Z,99089.72
2023-01-18T14:03:29.525Z,99094.72
2023-01-18T14:05:57.459Z,99091.09
2023-01-18T14:08:31.363Z,99097.44
2023-01-18T14:11:09.065Z,99101.81
2023-01-18T14:13:44.603Z,99099.84
2023-01-18T14:16:35.666Z,99114.47
2023-01-18T14:19:17.001Z,99113.56
2023-01-18T14:22:05.379Z,99115.50
2023-01-18T14:24:40.749Z,99114.00
2023-01-18T14:27:14.410Z,99121.41
2023-01-18T14:29:49.260Z,99126.31
2023-01-18T14:32:23.039Z,99136.66
2023-01-18T14:35:18.661Z,99142.94
2023-01-18T14:37:45.173Z,99153.38
2023-01-18T14:40:19.396Z,99147.22
2023-01-18T14:42:50.132Z,99160.94
2023-01-18T14:45:30.074Z,99161.72
2023-01-18T14:48:00.555Z,99171.81
2023-01-18T14:50:37.394Z,99176.50
2023-01-18T14:53:04.630Z,99162.34
2023-01-18T14:55:33.347Z,99169.16
2023-01-18T14:58:11.574Z,99175.53
2023-01-18T15:00:53.650Z,99184.19
2023-01-18T15:03:26.332Z,99193.28
2023-01-18T15:06:11.107Z,99198.00
2023-01-18T15:08:39.018Z,99206.97
2023-01-18T15:11:07.081Z,99193.16
2023-01-18T15:13:41.550Z,99200.66
2023-01-18T15:16:09.590Z,99207.81
2023-01-18T15:18:36.236Z,99210.69
2023-01-18T15:21:06.194Z,99218.06
2023-01-18T15:23:35.669Z,99214.72
2023-01-18T15:26:02.222Z,99221.16
2023-01-18T15:28:33.848Z,99216.59
2023-01-18T15:31:06.151Z,99231.47
2023-01-18T15:33:34.821Z,99239.84
2023-01-18T15:36:01.805Z,99241.47
2023-01-18T15:38:28.412Z,99251.09
2023-01-18T15:41:05.599Z,99249.00
2023-01-18T15:43:41.635Z,99253.56
2023-01-18T15:46:12.864Z,99256.94
2023-01-18T15:48:49.764Z,99259.66
2023-01-18T15:51:16.360Z,99255.41
2023-01-18T15:53:49.032Z,99265.09
2023-01-18T15:56:19.229Z,99269.50
2023-01-18T15:58:49.998Z,99281.75
2023-01-18T16:01:20.445Z,99289.69
2023-01-18T16:03:49.629Z,99300.97
2023-01-18T16:06:37.621Z,99298.50
2023-01-18T16:09:24.354Z,99310.75
2023-01-18T16:11:53.858Z,99310.13
2023-01-18T16:14:30.947Z,99310.34
2023-01-18T16:16:59.367Z,99303.88
2023-01-18T16:19:33.025Z,99316.25
2023-01-18T16:22:02.834Z,99314.63
2023-01-18T16:24:33.986Z,99317.53
2023-01-18T16:27:12.892Z,99322.59
2023-01-18T16:29:46.437Z,99326.84
2023-01-18T16:32:21.804Z,99324.34
2023-01-18T16:34:48.506Z,99341.56
2023-01-18T16:37:15.216Z,99336.59
2023-01-18T16:39:41.665Z,99336.41
2023-01-18T16:42:10.177Z,99346.84
2023-01-18T16:44:37.089Z,99347.47
2023-01-18T16:47:03.729Z,99349.13
2023-01-18T16:49:30.475Z,99356.38
2023-01-18T16:51:56.952Z,99364.94
2023-01-18T16:54:23.623Z,99359.00
2023-01-18T16:56:50.188Z,99359.13
2023-01-18T16:59:19.311Z,99371.41
2023-01-18T17:01:46.303Z,99370.09
2023-01-18T17:04:12.879Z,99362.50
2023-01-18T17:06:44.125Z,99374.94
2023-01-18T17:09:27.026Z,99383.81
2023-01-18T17:11:53.590Z,99387.66
2023-01-18T17:14:21.398Z,99385.47
2023-01-18T17:16:49.154Z,99400.84
2023-01-18T17:19:18.534Z,99395.38
2023-01-18T17:21:47.032Z,99392.78
2023-01-18T17:24:14.894Z,99401.69
2023-01-18T17:26:42.767Z,99403.50
2023-01-18T17:29:17.295Z,99403.22
2023-01-18T17:31:52.317Z,99412.16
2023-01-18T17:34:28.057Z,99418.34
2023-01-18T17:36:55.692Z,99420.41
2023-01-18T17:39:22.960Z,99422.47
2023-01-18T17:41:49.399Z,99433.69
2023-01-18T17:44:15.806Z,99433.03
2023-01-18T17:46:42.183Z,99438.19
2023-01-18T17:49:08.645Z,99434.38
2023-01-18T17:51:35.472Z,99441.38
2023-01-18T17:54:03.551Z,99451.28
2023-01-18T17:56:30.068Z,99459.16
2023-01-18T17:58:56.461Z,99460.94
2023-01-18T18:01:22.987Z,99460.66
2023-01-18T18:03:50.988Z,99460.19
2023-01-18T18:06:30.204Z,99469.16
2023-01-18T18:08:57.063Z,99468.69
2023-01-18T18:11:23.962Z,99464.13
2023-01-18T18:13:50.427Z,99467.19
2023-01-18T18:16:18.816Z,99474.28
2023-01-18T18:18:45.972Z,99481.41
2023-01-18T18:21:12.421Z,99468.88
2023-01-18T18:23:38.880Z,99478.41
2023-01-18T18:26:05.849Z,99481.31
2023-01-18T18:28:33.471Z,99491.47
2023-01-18T18:31:00.267Z,99489.50
2023-01-18T18:33:28.091Z,99496.78
2023-01-18T18:35:54.663Z,99493.63
2023-01-18T18:38:23.994Z,99493.31
2023-01-18T18:40:51.268Z,99499.56
2023-01-18T18:43:18.281Z,99501.63
2023-01-18T18:45:45.825Z,99513.00
2023-01-18T18:48:13.463Z,99516.25
2023-01-18T18:50:40.159Z,99522.91
2023-01-18T18:53:06.554Z,99524.28
2023-01-18T18:55:32.999Z,99526.50
2023-01-18T18:57:59.391Z,99521.47
2023-01-18T19:00:26.945Z,99518.94
2023-01-18T19:03:01.246Z,99524.56
2023-01-18T19:05:29.479Z,99527.44
2023-01-18T19:07:55.985Z,99533.00
2023-01-18T19:10:24.941Z,99531.69
2023-01-18T19:12:51.308Z,99530.03
2023-01-18T19:15:17.917Z,99537.47
2023-01-18T19:17:44.403Z,99533.09
2023-01-18T19:20:13.794Z,99537.84
2023-01-18T19:22:40.186Z,99542.59
2023-01-18T19:25:07.211Z,99540.06
2023-01-18T19:27:34.182Z,99539.22
2023-01-18T19:30:00.542Z,99549.38
2023-01-18T19:32:26.909Z,99550.78
2023-01-18T19:34:53.267Z,99555.50
2023-01-18T19:37:19.745Z,99555.88
2023-01-18T19:39:46.151Z,99558.56
2023-01-18T19:42:12.622Z,99557.91
2023-01-18T19:44:39.024Z,99554.53
2023-01-18T19:47:05.586Z,99558.63
2023-01-18T19:49:31.988Z,99558.97
2023-01-18T19:51:58.705Z,99562.72
2023-01-18T19:54:25.239Z,99562.03
2023-01-18T19:56:51.684Z,99559.72
2023-01-18T19:59:18.102Z,99569.84
2023-01-18T20:01:44.766Z,99567.97
2023-01-18T20:04:13.528Z,99572.75
2023-01-18T20:06:43.194Z,99580.00
2023-01-18T20:09:19.098Z,99580.16
2023-01-18T20:11:46.818Z,99584.94
2023-01-18T20:14:13.273Z,99591.19
2023-01-18T20:16:39.689Z,99594.25
2023-01-18T20:19:06.199Z,99589.00
2023-01-18T20:21:32.601Z,99594.41
2023-01-18T20:23:59.165Z,99593.56
2023-01-18T20:26:36.097Z,99599.81
2023-01-18T20:29:06.739Z,99602.69
2023-01-18T20:31:34.722Z,99598.47
2023-01-18T20:34:01.269Z,99608.44
2023-01-18T20:36:27.923Z,99598.69
2023-01-18T20:38:54.330Z,99600.88
2023-01-18T20:41:20.863Z,99607.84
2023-01-18T20:43:47.586Z,99607.34
2023-01-18T20:46:14.291Z,99618.31
2023-01-18T20:48:40.765Z,99608.88
2023-01-18T20:51:07.656Z,99614.63
2023-01-18T20:53:34.246Z,99621.22
2023-01-18T20:56:28.832Z,99615.34
2023-01-18T20:58:56.915Z,99627.84
2023-01-18T21:01:23.680Z,99624.44
2023-01-18T21:03:55.327Z,99628.16
2023-01-18T21:06:21.956Z,99631.56
2023-01-18T21:08:54.934Z,99629.84
2023-01-18T21:11:23.070Z,99629.00
2023-01-18T21:13:51.053Z,99631.56
2023-01-18T21:16:17.968Z,99627.16
2023-01-18T21:18:44.917Z,99624.44
2023-01-18T21:21:12.582Z,99636.28
2023-01-18T21:26:22.552Z,99632.75
2023-01-18T21:28:49.066Z,99630.88
2023-01-18T21:31:15.677Z,99647.94
2023-01-18T21:33:42.638Z,99647.78
2023-01-18T21:36:12.990Z,99651.47
2023-01-18T21:38:39.514Z,99650.81
2023-01-18T21:41:25.080Z,99645.56
2023-01-18T21:44:11.651Z,99650.97
2023-01-18T21:46:43.872Z,99660.94
2023-01-18T21:49:42.904Z,99661.44
2023-01-18T21:52:32.328Z,99659.09
2023-01-18T21:54:58.802Z,99662.84
2023-01-18T21:57:25.205Z,99663.00
2023-01-18T21:59:51.864Z,99671.75
2023-01-18T22:02:18.453Z,99665.69
2023-01-18T22:04:58.013Z,99681.06
2023-01-18T22:07:24.864Z,99679.38
2023-01-18T22:10:03.585Z,99681.41
2023-01-18T22:12:32.591Z,99688.88
2023-01-18T22:15:01.424Z,99685.13
2023-01-18T22:17:27.854Z,99686.97
2023-01-18T22:19:54.333Z,99691.72
2023-01-18T22:22:20.798Z,99686.31
2023-01-18T22:24:47.261Z,99682.94
2023-01-18T22:27:13.674Z,99691.03
2023-01-18T22:29:40.187Z,99687.50
2023-01-18T22:32:06.672Z,99698.31
2023-01-18T22:34:33.153Z,99698.13
2023-01-18T22:36:59.509Z,99708.09
2023-01-18T22:39:25.944Z,99703.53
2023-01-18T22:41:52.387Z,99705.06
2023-01-18T22:44:18.760Z,99707.59
2023-01-18T22:46:45.317Z,99702.19
2023-01-18T22:49:11.753Z,99698.47
2023-01-18T22:51:38.187Z,99694.28
2023-01-18T22:54:04.637Z,99700.47
2023-01-18T22:56:31.067Z,99700.84
2023-01-18T22:58:57.615Z,99700.34
2023-01-18T23:01:26.737Z,99697.81
2023-01-18T23:03:56.306Z,99698.13
2023-01-18T23:06:22.977Z,99705.56
2023-01-18T23:08:49.934Z,99701.88
2023-01-18T23:11:29.075Z,99702.72
2023-01-18T23:14:16.137Z,99708.94
2023-01-18T23:17:02.207Z,99708.94
2023-01-18T23:19:30.639Z,99719.75
2023-01-18T23:21:57.594Z,99712.31
2023-01-18T23:24:24.586Z,99721.09
2023-01-18T23:26:51.868Z,99728.19
2023-01-18T23:29:18.779Z,99722.78
2023-01-18T23:31:46.655Z,99718.59
2023-01-18T23:34:13.122Z,99718.94
2023-01-18T23:36:39.600Z,99723.47
2023-01-18T23:39:24.829Z,99723.63
2023-01-18T23:42:09.852Z,99724.97
2023-01-18T23:44:54.935Z,99729.53
2023-01-18T23:47:40.341Z,99725.34
2023-01-18T23:50:25.696Z,99729.88
2023-01-18T23:53:10.797Z,99732.44
2023-01-18T23:55:37.223Z,99729.88
2023-01-18T23:58:03.677Z,99733.28
